createdAt,value
2023-03-06T00:02:17.833Z,82.7
2023-03-06T00:05:17.839Z,82.7
2023-03-06T00:08:17.810Z,82.8
2023-03-06T00:11:17.816Z,82.7
2023-03-06T00:14:17.810Z,82.7
2023-03-06T00:17:17.824Z,82.6
2023-03-06T00:20:17.819Z,82.6
2023-03-06T00:23:17.839Z,82.6
2023-03-06T00:26:17.825Z,82.4
2023-03-06T00:29:17.846Z,82.4
2023-03-06T00:32:17.908Z,82.1
2023-03-06T00:35:17.873Z,82.2
2023-03-06T00:38:17.835Z,82.3
2023-03-06T00:41:17.866Z,82.3
2023-03-06T00:44:17.845Z,82.4
2023-03-06T00:47:17.860Z,82.5
2023-03-06T00:50:17.861Z,82.4
2023-03-06T00:53:17.859Z,82.3
2023-03-06T00:56:19.820Z,82.2
2023-03-06T00:59:17.887Z,82.1
2023-03-06T01:02:18.091Z,81.7
2023-03-06T01:05:17.864Z,81.8
2023-03-06T01:08:17.865Z,81.8
2023-03-06T01:11:17.875Z,81.8
2023-03-06T01:14:17.879Z,82
2023-03-06T01:17:17.949Z,82
2023-03-06T01:20:17.883Z,82.1
2023-03-06T01:23:17.893Z,82.2
2023-03-06T01:26:17.894Z,82.3
2023-03-06T01:29:17.903Z,82.2
2023-03-06T01:32:17.989Z,82.1
2023-03-06T01:35:18.033Z,82.2
2023-03-06T01:38:17.922Z,82.1
2023-03-06T01:41:17.933Z,82.1
2023-03-06T01:44:17.941Z,82.2
2023-03-06T01:47:17.935Z,82.3
2023-03-06T01:50:17.949Z,82.2
2023-03-06T01:53:17.971Z,82.2
2023-03-06T01:56:17.951Z,82.2
2023-03-06T01:59:17.959Z,82.2
2023-03-06T02:02:17.990Z,82.1
2023-03-06T02:05:17.973Z,82.2
2023-03-06T02:08:17.971Z,82.1
2023-03-06T02:11:18.050Z,82.2
2023-03-06T02:14:17.994Z,82.2
2023-03-06T02:17:17.994Z,82.3
2023-03-06T02:20:18.006Z,82.3
2023-03-06T02:23:18.007Z,82.3
2023-03-06T02:26:18.014Z,82.4
2023-03-06T02:29:18.049Z,82.3
2023-03-06T02:32:18.038Z,82.4
2023-03-06T02:35:18.034Z,82.3
2023-03-06T02:38:18.033Z,82.4
2023-03-06T02:41:18.038Z,82.4
2023-03-06T02:44:18.041Z,82.4
2023-03-06T02:47:18.073Z,82.4
2023-03-06T02:50:18.046Z,82.5
2023-03-06T02:53:18.056Z,82.4
2023-03-06T02:56:18.063Z,82.7
2023-03-06T02:59:18.069Z,83
2023-03-06T03:02:18.069Z,83
2023-03-06T03:05:18.092Z,83.5
2023-03-06T03:08:18.074Z,83.6
2023-03-06T03:11:18.084Z,84
2023-03-06T03:14:18.086Z,84.6
2023-03-06T03:17:18.091Z,84.6
2023-03-06T03:20:18.099Z,85.2
2023-03-06T03:23:18.123Z,85.2
2023-03-06T03:26:18.112Z,85.8
2023-03-06T03:29:18.128Z,85.6
2023-03-06T03:32:18.199Z,85.9
2023-03-06T03:35:18.126Z,86.1
2023-03-06T03:38:18.140Z,86.1
2023-03-06T03:41:18.173Z,86
2023-03-06T03:44:18.152Z,86.2
2023-03-06T03:47:18.168Z,86.1
2023-03-06T03:50:18.174Z,86.2
2023-03-06T03:53:18.174Z,86.2
2023-03-06T03:56:18.178Z,86.4
2023-03-06T03:59:18.213Z,86.4
2023-03-06T04:02:18.206Z,86.5
2023-03-06T04:05:18.189Z,86.6
2023-03-06T04:08:18.194Z,86.6
2023-03-06T04:11:18.200Z,86.7
2023-03-06T04:14:18.203Z,86.7
2023-03-06T04:17:18.234Z,86.8
2023-03-06T04:20:18.223Z,86.8
2023-03-06T04:23:18.224Z,86.8
2023-03-06T04:26:18.244Z,86.8
2023-03-06T04:29:18.244Z,87
2023-03-06T04:32:19.681Z,87.5
2023-03-06T04:35:18.313Z,87.4
2023-03-06T04:38:18.277Z,88.3
2023-03-06T04:41:18.278Z,88.6
2023-03-06T04:44:18.280Z,88.9
2023-03-06T04:47:19.166Z,89.3
2023-03-06T04:50:18.297Z,89.2
2023-03-06T04:53:18.332Z,89.4
2023-03-06T04:56:18.317Z,90
2023-03-06T04:59:18.326Z,89.4
2023-03-06T05:02:18.390Z,89.9
2023-03-06T05:05:18.338Z,89.7
2023-03-06T05:08:18.362Z,89.9
2023-03-06T05:11:18.383Z,89.7
2023-03-06T05:14:18.355Z,89.8
2023-03-06T05:17:18.361Z,89.8
2023-03-06T05:20:18.368Z,90
2023-03-06T05:23:18.376Z,89.9
2023-03-06T05:26:18.377Z,90
2023-03-06T05:29:18.420Z,90.1
2023-03-06T05:32:18.455Z,90.1
2023-03-06T05:35:18.553Z,90.2
2023-03-06T05:38:18.408Z,90.2
2023-03-06T05:41:18.409Z,90.3
2023-03-06T05:44:18.430Z,90.4
2023-03-06T05:47:18.452Z,90.6
2023-03-06T05:50:18.434Z,90.7
2023-03-06T05:53:18.435Z,90.8
2023-03-06T05:56:18.433Z,90.9
2023-03-06T05:59:18.434Z,91.1
2023-03-06T06:02:18.458Z,91.3
2023-03-06T06:05:18.473Z,91.4
2023-03-06T06:08:18.447Z,91.5
2023-03-06T06:11:18.467Z,91.6
2023-03-06T06:14:18.460Z,91.8
2023-03-06T06:17:18.460Z,92
2023-03-06T06:20:18.476Z,92.4
2023-03-06T06:23:18.498Z,92.6
2023-03-06T06:26:18.476Z,92.7
2023-03-06T06:29:18.479Z,92.5
2023-03-06T06:32:18.556Z,92.6
2023-03-06T06:35:18.490Z,92.7
2023-03-06T06:38:18.497Z,92.7
2023-03-06T06:41:39.156Z,92.8
2023-03-06T06:44:18.506Z,92.8
2023-03-06T06:47:22.617Z,92.9
2023-03-06T06:50:18.530Z,92.9
2023-03-06T06:53:18.519Z,93
2023-03-06T06:56:18.525Z,93
2023-03-06T06:59:18.554Z,93
2023-03-06T07:02:18.540Z,93.1
2023-03-06T07:05:19.389Z,93
2023-03-06T07:08:18.550Z,93
2023-03-06T07:11:18.550Z,92.9
2023-03-06T07:14:18.564Z,92.9
2023-03-06T07:17:18.695Z,92.9
2023-03-06T07:20:18.714Z,92.9
2023-03-06T07:23:18.692Z,92.8
2023-03-06T07:26:18.569Z,92.7
2023-03-06T07:29:18.579Z,92.5
2023-03-06T07:32:18.642Z,92.3
2023-03-06T07:35:20.295Z,92.1
2023-03-06T07:38:18.596Z,91.9
2023-03-06T07:41:19.789Z,91.7
2023-03-06T07:44:18.599Z,91.7
2023-03-06T07:47:18.598Z,91.6
2023-03-06T07:50:18.608Z,91.5
2023-03-06T07:53:18.632Z,91.5
2023-03-06T07:56:18.617Z,91.4
2023-03-06T07:59:18.634Z,91.2
2023-03-06T08:02:18.630Z,90.9
2023-03-06T08:05:18.629Z,90.7
2023-03-06T08:08:18.645Z,90.3
2023-03-06T08:11:18.660Z,90.1
2023-03-06T08:14:18.654Z,90.1
2023-03-06T08:17:18.656Z,90.2
2023-03-06T08:20:18.649Z,90.2
2023-03-06T08:23:18.661Z,90.1
2023-03-06T08:26:18.661Z,90
2023-03-06T08:29:18.693Z,90
2023-03-06T08:32:18.780Z,89.9
2023-03-06T08:35:18.671Z,89.8
2023-03-06T08:38:18.679Z,89.8
2023-03-06T08:41:20.216Z,89.8
2023-03-06T08:44:18.691Z,89.7
2023-03-06T08:47:18.724Z,89.8
2023-03-06T08:50:18.703Z,90
2023-03-06T08:53:18.716Z,90.2
2023-03-06T08:56:18.733Z,90.3
2023-03-06T08:59:18.757Z,90.4
2023-03-06T09:02:18.793Z,90.4
2023-03-06T09:05:18.752Z,90.6
2023-03-06T09:08:18.749Z,90.7
2023-03-06T09:11:18.724Z,90.9
2023-03-06T09:14:18.765Z,91
2023-03-06T09:17:18.785Z,91.1
2023-03-06T09:20:18.797Z,91
2023-03-06T09:23:18.812Z,90.8
2023-03-06T09:26:18.838Z,90.6
2023-03-06T09:29:18.780Z,90.2
2023-03-06T09:32:18.854Z,89.9
2023-03-06T09:35:18.852Z,89.8
2023-03-06T09:38:18.795Z,89.8
2023-03-06T09:41:18.807Z,89.7
2023-03-06T09:44:18.775Z,89.6
2023-03-06T09:47:18.775Z,89.5
2023-03-06T09:50:18.799Z,89.7
2023-03-06T09:53:18.898Z,89.7
2023-03-06T09:56:18.789Z,89.8
2023-03-06T09:59:18.921Z,89.9
2023-03-06T10:02:18.952Z,90
2023-03-06T10:05:18.796Z,90.1
2023-03-06T10:08:18.836Z,90.3
2023-03-06T10:11:18.803Z,90.4
2023-03-06T10:14:18.895Z,90.3
2023-03-06T10:17:18.846Z,90.1
2023-03-06T10:20:18.849Z,89.8
2023-03-06T10:23:18.828Z,89.5
2023-03-06T10:26:18.906Z,89.2
2023-03-06T10:29:18.839Z,89.2
2023-03-06T10:32:18.862Z,89
2023-03-06T10:35:18.883Z,89
2023-03-06T10:38:18.857Z,88.8
2023-03-06T10:41:18.854Z,88.7
2023-03-06T10:44:18.865Z,88.7
2023-03-06T10:47:18.865Z,88.7
2023-03-06T10:50:18.870Z,88.5
2023-03-06T10:53:18.972Z,88.5
2023-03-06T10:56:18.877Z,88.4
2023-03-06T10:59:18.894Z,88.2
2023-03-06T11:02:18.884Z,88.3
2023-03-06T11:05:18.880Z,88.1
2023-03-06T11:08:18.888Z,87.7
2023-03-06T11:11:31.584Z,86.9
2023-03-06T11:14:18.899Z,86.5
2023-03-06T11:17:18.897Z,86.2
2023-03-06T11:20:18.948Z,86
2023-03-06T11:23:18.913Z,86
2023-03-06T11:26:18.903Z,86
2023-03-06T11:29:19.016Z,85.8
2023-03-06T11:32:18.924Z,85.8
2023-03-06T11:35:18.914Z,85.6
2023-03-06T11:38:18.921Z,85.3
2023-03-06T11:41:18.920Z,85
2023-03-06T11:44:18.933Z,84.2
2023-03-06T11:47:18.979Z,84.3
2023-03-06T11:50:18.937Z,84.7
2023-03-06T11:53:18.950Z,85.4
2023-03-06T11:56:18.955Z,85.6
2023-03-06T11:59:18.954Z,85.7
2023-03-06T12:02:19.052Z,84.4
2023-03-06T12:05:19.173Z,83.8
2023-03-06T12:08:18.971Z,83.4
2023-03-06T12:11:18.978Z,83
2023-03-06T12:14:18.976Z,82.7
2023-03-06T12:17:18.975Z,82.7
2023-03-06T12:20:18.980Z,82.8
2023-03-06T12:23:19.018Z,82.6
2023-03-06T12:26:18.986Z,81.1
2023-03-06T12:29:18.996Z,80.9
2023-03-06T12:32:19.179Z,80.8
2023-03-06T12:35:19.047Z,80.3
2023-03-06T12:38:19.008Z,79.5
2023-03-06T12:41:19.026Z,79.3
2023-03-06T12:44:19.011Z,79.5
2023-03-06T12:47:19.015Z,79.4
2023-03-06T12:50:19.025Z,79.9
2023-03-06T12:53:19.023Z,79.8
2023-03-06T12:56:19.029Z,79
2023-03-06T12:59:19.074Z,78.2
2023-03-06T13:02:19.085Z,77.4
2023-03-06T13:05:19.043Z,77.3
2023-03-06T13:08:19.056Z,77.6
2023-03-06T13:11:19.063Z,77.8
2023-03-06T13:14:19.056Z,77.8
2023-03-06T13:17:19.088Z,78
2023-03-06T13:20:19.053Z,78
2023-03-06T13:23:19.051Z,75.4
2023-03-06T13:26:19.056Z,75.7
2023-03-06T13:29:19.055Z,77
2023-03-06T13:32:19.139Z,77.5
2023-03-06T13:35:19.091Z,76.5
2023-03-06T13:38:19.060Z,75.9
2023-03-06T13:41:19.057Z,76.4
2023-03-06T13:44:19.062Z,76.6
2023-03-06T13:47:19.063Z,76.2
2023-03-06T13:50:19.065Z,75
2023-03-06T13:53:19.153Z,75.4
2023-03-06T13:56:19.068Z,75.8
2023-03-06T13:59:19.072Z,74.2
2023-03-06T14:02:19.122Z,74
2023-03-06T14:05:19.086Z,72.7
2023-03-06T14:08:19.100Z,72.8
2023-03-06T14:11:19.145Z,72.7
2023-03-06T14:14:19.128Z,72.9
2023-03-06T14:17:19.131Z,73
2023-03-06T14:20:19.158Z,72.6
2023-03-06T14:23:19.157Z,72
2023-03-06T14:26:19.171Z,71.3
2023-03-06T14:29:19.190Z,71.3
2023-03-06T14:32:19.203Z,71
2023-03-06T14:35:19.193Z,70.7
2023-03-06T14:38:19.182Z,67.8
2023-03-06T14:41:19.183Z,68.3
2023-03-06T14:44:19.250Z,68.4
2023-03-06T14:47:19.264Z,67.5
2023-03-06T14:50:19.197Z,68.8
2023-03-06T14:53:19.198Z,67.9
2023-03-06T14:56:19.198Z,68.2
2023-03-06T14:59:19.202Z,68.6
2023-03-06T15:02:19.214Z,69.3
2023-03-06T15:05:19.299Z,69.6
2023-03-06T15:08:19.215Z,69.9
2023-03-06T15:11:19.211Z,70.6
2023-03-06T15:14:19.216Z,71
2023-03-06T15:17:19.212Z,71.1
2023-03-06T15:20:19.239Z,71
2023-03-06T15:23:19.240Z,71.1
2023-03-06T15:26:19.217Z,70.7
2023-03-06T15:29:19.220Z,70.9
2023-03-06T15:32:19.290Z,71.3
2023-03-06T15:38:19.228Z,72.1
2023-03-06T15:41:19.256Z,72.3
2023-03-06T15:44:19.227Z,72.5
2023-03-06T15:47:19.258Z,72.9
2023-03-06T15:50:19.236Z,73.1
2023-03-06T15:53:19.238Z,73.1
2023-03-06T15:56:19.240Z,73.1
2023-03-06T15:59:19.270Z,73.1
2023-03-06T16:02:19.244Z,72.9
2023-03-06T16:05:19.245Z,72.7
2023-03-06T16:08:19.246Z,72.1
2023-03-06T16:11:19.246Z,71.9
2023-03-06T16:14:19.244Z,71.8
2023-03-06T16:17:19.267Z,71.8
2023-03-06T16:20:19.239Z,71.9
2023-03-06T16:23:19.240Z,72.1
2023-03-06T16:26:19.248Z,72
2023-03-06T16:29:19.251Z,72.1
2023-03-06T16:32:19.305Z,72.4
2023-03-06T16:35:19.336Z,72.6
2023-03-06T16:38:19.249Z,72.8
2023-03-06T16:41:19.251Z,72.8
2023-03-06T16:44:19.278Z,73.2
2023-03-06T16:47:19.252Z,73.7
2023-03-06T16:50:19.256Z,74.3
2023-03-06T16:53:19.294Z,75.1
2023-03-06T16:56:19.260Z,75.6
2023-03-06T16:59:19.266Z,76.1
2023-03-06T17:02:19.319Z,76.9
2023-03-06T17:05:19.265Z,77.7
2023-03-06T17:08:19.265Z,78.3
2023-03-06T17:11:19.295Z,78.8
2023-03-06T17:14:19.270Z,79.2
2023-03-06T17:17:19.271Z,79.5
2023-03-06T17:20:19.270Z,79.9
2023-03-06T17:23:19.275Z,80.3
2023-03-06T17:26:19.305Z,80.7
2023-03-06T17:29:19.301Z,81.1
2023-03-06T17:32:19.310Z,81.4
2023-03-06T17:35:19.326Z,81.7
2023-03-06T17:38:19.280Z,81.9
2023-03-06T17:41:19.288Z,82.2
2023-03-06T17:44:19.279Z,82.6
2023-03-06T17:47:19.334Z,82.9
2023-03-06T17:50:19.289Z,83.2
2023-03-06T17:53:19.287Z,83.6
2023-03-06T17:56:19.290Z,83.8
2023-03-06T17:59:19.290Z,84
2023-03-06T18:02:19.290Z,84.3
2023-03-06T18:05:19.328Z,84.5
2023-03-06T18:08:19.299Z,84.9
2023-03-06T18:11:19.292Z,85.3
2023-03-06T18:14:19.292Z,85.6
2023-03-06T18:17:19.298Z,85.9
2023-03-06T18:20:19.300Z,86.4
2023-03-06T18:23:19.318Z,86.7
2023-03-06T18:26:19.300Z,87.1
2023-03-06T18:29:19.299Z,87.3
2023-03-06T18:32:19.324Z,87.4
2023-03-06T18:35:19.347Z,87.5
2023-03-06T18:38:19.301Z,87.9
2023-03-06T18:41:19.331Z,87.9
2023-03-06T18:44:19.303Z,87.7
2023-03-06T18:47:19.310Z,87.5
2023-03-06T18:50:19.316Z,87.3
2023-03-06T18:53:19.310Z,87.1
2023-03-06T18:56:19.309Z,87.3
2023-03-06T18:59:19.343Z,87.3
2023-03-06T19:02:19.318Z,87.4
2023-03-06T19:05:19.322Z,87.3
2023-03-06T19:08:19.326Z,87.3
2023-03-06T19:11:19.338Z,87.4
2023-03-06T19:14:19.349Z,87.6
2023-03-06T19:17:19.413Z,87.7
2023-03-06T19:20:19.340Z,87.6
2023-03-06T19:23:19.339Z,87.8
2023-03-06T19:26:19.348Z,87.8
2023-03-06T19:29:19.349Z,87.7
2023-03-06T19:32:19.479Z,87.8
2023-03-06T19:35:19.390Z,87.9
2023-03-06T19:38:19.357Z,88.1
2023-03-06T19:41:19.357Z,88.1
2023-03-06T19:44:19.358Z,88.2
2023-03-06T19:47:19.368Z,88.3
2023-03-06T19:50:19.364Z,88.5
2023-03-06T19:53:19.393Z,88.7
2023-03-06T19:56:19.365Z,88.7
2023-03-06T19:59:19.366Z,88.6
2023-03-06T20:02:19.371Z,88.6
2023-03-06T20:05:19.365Z,88.6
2023-03-06T20:08:19.376Z,88.5
2023-03-06T20:11:19.399Z,88.5
2023-03-06T20:14:19.381Z,88.6
2023-03-06T20:17:19.371Z,88.7
2023-03-06T20:20:19.365Z,88.5
2023-03-06T20:23:19.372Z,88.5
2023-03-06T20:26:19.370Z,88.5
2023-03-06T20:29:19.396Z,88.5
2023-03-06T20:32:19.409Z,88.6
2023-03-06T20:35:19.378Z,88.5
2023-03-06T20:38:19.401Z,88.4
2023-03-06T20:41:19.393Z,88.5
2023-03-06T20:44:19.410Z,88.3
2023-03-06T20:47:19.432Z,88
2023-03-06T20:50:19.398Z,88.1
2023-03-06T20:53:19.405Z,88
2023-03-06T20:56:19.408Z,88.3
2023-03-06T20:59:19.431Z,88.6
2023-03-06T21:02:19.408Z,88.8
2023-03-06T21:05:19.443Z,88.8
2023-03-06T21:08:19.412Z,88.7
2023-03-06T21:11:19.517Z,88.8
2023-03-06T21:14:19.420Z,88.9
2023-03-06T21:17:19.415Z,89
2023-03-06T21:20:19.591Z,89
2023-03-06T21:23:19.453Z,89.1
2023-03-06T21:26:19.424Z,89.2
2023-03-06T21:29:19.440Z,89.2
2023-03-06T21:32:19.483Z,89.1
2023-03-06T21:35:19.438Z,89
2023-03-06T21:38:19.440Z,88.8
2023-03-06T21:41:19.464Z,88.7
2023-03-06T21:44:19.439Z,88.6
2023-03-06T21:47:19.428Z,88.6
2023-03-06T21:50:19.439Z,88.6
2023-03-06T21:53:19.449Z,88.8
2023-03-06T21:56:19.462Z,88.9
2023-03-06T21:59:19.483Z,88.9
2023-03-06T22:02:19.442Z,89
2023-03-06T22:05:19.446Z,89
2023-03-06T22:08:19.448Z,89
2023-03-06T22:11:19.452Z,88.9
2023-03-06T22:14:19.447Z,88.7
2023-03-06T22:17:19.488Z,88.6
2023-03-06T22:20:19.451Z,88.5
2023-03-06T22:23:19.450Z,88.4
2023-03-06T22:26:19.454Z,88.3
2023-03-06T22:29:19.455Z,88.1
2023-03-06T22:32:19.571Z,87.9
2023-03-06T22:35:19.478Z,87.8
2023-03-06T22:38:19.454Z,87.6
2023-03-06T22:41:19.453Z,87.5
2023-03-06T22:44:19.462Z,87.4
2023-03-06T22:47:19.456Z,87.5
2023-03-06T22:50:19.456Z,87.5
2023-03-06T22:53:19.553Z,87.5
2023-03-06T22:56:19.464Z,87.5
2023-03-06T22:59:19.465Z,87.4
2023-03-06T23:02:19.471Z,87.5
2023-03-06T23:05:19.471Z,87.4
2023-03-06T23:08:19.478Z,87.5
2023-03-06T23:11:19.509Z,87.5
2023-03-06T23:14:19.564Z,87.5
2023-03-06T23:17:19.487Z,87.5
2023-03-06T23:20:19.496Z,87.5
2023-03-06T23:23:19.495Z,87.5
2023-03-06T23:26:19.498Z,87.6
2023-03-06T23:29:19.522Z,87.7
2023-03-06T23:32:19.584Z,87.8
2023-03-06T23:35:19.510Z,87.8
2023-03-06T23:38:19.512Z,87.9
2023-03-06T23:41:19.508Z,88
2023-03-06T23:44:19.512Z,87.9
2023-03-06T23:47:19.539Z,87.9
2023-03-06T23:50:19.519Z,87.6
2023-03-06T23:53:19.522Z,87.4
2023-03-06T23:56:19.523Z,87.3
2023-03-06T23:59:19.521Z,87.1
